Williamsville, Illinois
Current Conditions -  °F | °C
As of 6:52 AM on Wednesday 26 Nov 2014 (Local Time) from KSPI Reporting Station
Few Clouds Few Clouds  
Wind Chill: 17°   Ceiling: Unl
Heat Index: 26°   Visibility: 10mi
Dew Point: 24°   Wind: 9mph
Humidity: 92%   Direction: 110°ESE
Pressure: 30.1"   Gusts: NA
Location:  39.95°N, 89.55°W
Report Text: KSPI 261252Z 11008KT 10SM FEW110 M03/M04 A3010 RMK AO2 SLP199 T10331044
Loading
Personal Weather Stations






























Interactive Weather Map New forecast layout! Learn more

10-Day Weather Forecast

Advertisements
Track Severe Weather on mobile